createdAt,value
2023-03-12T00:00:06.899Z,0.78
2023-03-12T00:05:06.834Z,0.82
2023-03-12T00:10:06.799Z,0.88
2023-03-12T00:15:06.676Z,0.94
2023-03-12T00:20:06.662Z,1.00
2023-03-12T00:25:06.602Z,1.04
2023-03-12T00:30:06.519Z,1.08
2023-03-12T00:35:06.443Z,1.11
2023-03-12T00:40:06.403Z,1.14
2023-03-12T00:45:06.309Z,1.17
2023-03-12T00:50:06.591Z,1.19
2023-03-12T00:55:06.160Z,1.20
2023-03-12T01:00:06.183Z,1.20
2023-03-12T01:10:54.951Z,2.37
2023-03-12T01:15:54.915Z,1.87
2023-03-12T01:20:54.805Z,1.61
2023-03-12T01:25:54.762Z,1.48
2023-03-12T01:30:54.684Z,1.42
2023-03-12T01:35:54.676Z,1.39
2023-03-12T01:40:54.643Z,1.39
2023-03-12T01:45:54.487Z,1.40
2023-03-12T01:50:54.427Z,1.41
2023-03-12T01:55:54.352Z,1.44
2023-03-12T02:00:54.324Z,1.45
2023-03-12T02:05:54.236Z,1.45
2023-03-12T02:10:54.181Z,1.46
2023-03-12T02:15:54.076Z,1.45
2023-03-12T02:20:54.078Z,1.44
2023-03-12T02:25:54.000Z,1.42
2023-03-12T02:30:53.950Z,1.40
2023-03-12T02:35:53.860Z,1.38
2023-03-12T02:40:53.792Z,1.37
2023-03-12T02:45:53.743Z,1.37
2023-03-12T02:50:53.680Z,1.37
2023-03-12T02:55:53.570Z,1.38
2023-03-12T03:00:53.535Z,1.39
2023-03-12T03:05:53.463Z,1.40
2023-03-12T03:10:53.404Z,1.41
2023-03-12T03:15:53.372Z,1.42
2023-03-12T03:20:53.293Z,1.44
2023-03-12T03:25:53.199Z,1.46
2023-03-12T03:30:53.236Z,1.48
2023-03-12T03:35:53.088Z,1.49
2023-03-12T03:40:53.034Z,1.51
2023-03-12T03:45:52.987Z,1.52
2023-03-12T03:50:52.882Z,1.53
2023-03-12T03:55:52.827Z,1.55
2023-03-12T04:00:52.754Z,1.57
2023-03-12T04:05:52.684Z,1.59
2023-03-12T04:10:52.627Z,1.62
2023-03-12T04:15:52.633Z,1.64
2023-03-12T04:20:52.475Z,1.65
2023-03-12T04:25:52.416Z,1.66
2023-03-12T04:30:52.398Z,1.68
2023-03-12T04:35:52.320Z,1.70
2023-03-12T04:40:52.282Z,1.74
2023-03-12T04:45:52.163Z,1.79
2023-03-12T04:50:52.112Z,1.83
2023-03-12T04:55:52.046Z,1.88
2023-03-12T05:00:52.013Z,1.92
2023-03-12T05:05:51.914Z,1.94
2023-03-12T05:10:51.881Z,1.96
2023-03-12T05:15:51.772Z,1.98
2023-03-12T05:20:51.740Z,1.99
2023-03-12T05:25:51.664Z,2.01
2023-03-12T05:30:51.614Z,2.01
2023-03-12T05:35:51.595Z,2.02
2023-03-12T05:40:51.518Z,2.01
2023-03-12T05:45:51.428Z,2.00
2023-03-12T05:50:51.353Z,2.00
2023-03-12T05:55:51.284Z,1.99
2023-03-12T06:00:51.223Z,1.98
2023-03-12T06:05:51.150Z,1.98
2023-03-12T06:10:51.101Z,1.98
2023-03-12T06:15:51.021Z,2.00
2023-03-12T06:20:50.972Z,2.01
2023-03-12T06:25:50.887Z,2.02
2023-03-12T06:30:50.842Z,2.03
2023-03-12T06:35:50.780Z,2.04
2023-03-12T06:40:50.703Z,2.06
2023-03-12T06:45:50.666Z,2.10
2023-03-12T06:50:50.579Z,2.17
2023-03-12T06:55:50.507Z,2.27
2023-03-12T07:01:05.510Z,2.35
2023-03-12T07:05:57.936Z,2.38
2023-03-12T07:11:00.754Z,2.41
2023-03-12T07:15:57.890Z,2.44
2023-03-12T07:20:57.718Z,2.48
2023-03-12T07:25:57.655Z,2.49
2023-03-12T07:30:57.628Z,2.51
2023-03-12T07:35:57.635Z,2.54
2023-03-12T07:40:57.463Z,2.59
2023-03-12T07:45:57.406Z,2.65
2023-03-12T07:50:57.316Z,2.69
2023-03-12T07:55:57.433Z,2.73
2023-03-12T08:00:57.300Z,2.77
2023-03-12T08:05:57.227Z,2.82
2023-03-12T08:10:57.070Z,2.88
2023-03-12T08:15:57.060Z,2.93
2023-03-12T08:20:56.952Z,2.97
2023-03-12T08:25:56.974Z,3.03
2023-03-12T08:30:56.803Z,3.10
2023-03-12T08:35:56.773Z,3.17
2023-03-12T08:40:56.676Z,3.25
2023-03-12T08:45:56.689Z,3.35
2023-03-12T08:50:56.545Z,3.43
2023-03-12T08:55:56.505Z,3.49
2023-03-12T09:00:56.449Z,3.57
2023-03-12T09:05:56.401Z,3.65
2023-03-12T09:10:56.291Z,3.72
2023-03-12T09:15:56.259Z,3.78
2023-03-12T09:20:56.159Z,3.87
2023-03-12T09:25:56.112Z,3.99
2023-03-12T09:30:56.135Z,4.10
2023-03-12T09:35:56.009Z,4.22
2023-03-12T09:40:55.883Z,4.33
2023-03-12T09:45:55.884Z,4.51
2023-03-12T09:50:55.848Z,4.65
2023-03-12T09:55:55.698Z,4.70
2023-03-12T10:00:55.654Z,4.75
2023-03-12T10:05:55.600Z,4.85
2023-03-12T10:10:55.524Z,5.05
2023-03-12T10:15:55.584Z,5.34
2023-03-12T10:20:55.406Z,5.64
2023-03-12T10:25:55.367Z,5.93
2023-03-12T10:30:55.323Z,6.19
2023-03-12T10:35:55.273Z,6.55
2023-03-12T10:40:55.159Z,6.99
2023-03-12T10:45:55.088Z,7.42
2023-03-12T10:50:55.003Z,7.81
2023-03-12T10:55:54.950Z,8.05
2023-03-12T11:00:54.880Z,8.16
2023-03-12T11:05:54.855Z,8.32
2023-03-12T11:10:54.733Z,8.62
2023-03-12T11:15:54.772Z,9.13
2023-03-12T11:20:54.644Z,9.56
2023-03-12T11:25:54.543Z,9.72
2023-03-12T11:30:54.469Z,9.94
2023-03-12T11:35:54.463Z,10.24
2023-03-12T11:40:54.360Z,10.47
2023-03-12T11:45:54.269Z,11.18
2023-03-12T11:50:54.459Z,12.40
2023-03-12T11:55:54.172Z,13.47
2023-03-12T12:00:54.269Z,13.90
2023-03-12T12:05:54.053Z,13.74
2023-03-12T12:10:53.952Z,13.25
2023-03-12T12:15:53.913Z,12.67
2023-03-12T12:20:53.836Z,12.20
2023-03-12T12:25:53.780Z,11.89
2023-03-12T12:30:53.692Z,11.68
2023-03-12T12:35:53.669Z,11.56
2023-03-12T12:40:53.552Z,11.50
2023-03-12T12:45:53.511Z,11.48
2023-03-12T12:50:53.403Z,11.43
2023-03-12T12:55:53.396Z,11.39
2023-03-12T13:00:53.353Z,11.39
2023-03-12T13:05:53.222Z,11.48
2023-03-12T13:10:57.920Z,11.66
2023-03-12T13:15:54.125Z,11.94
2023-03-12T13:20:53.028Z,12.37
2023-03-12T13:25:52.992Z,12.89
2023-03-12T13:30:52.957Z,13.32
2023-03-12T13:35:52.888Z,13.50
2023-03-12T13:40:52.752Z,13.54
2023-03-12T13:45:52.737Z,13.85
2023-03-12T13:50:52.623Z,14.17
2023-03-12T13:55:52.565Z,14.23
2023-03-12T14:00:52.520Z,14.32
2023-03-12T14:05:52.522Z,14.55
2023-03-12T14:10:53.306Z,14.73
2023-03-12T14:15:52.461Z,14.74
2023-03-12T14:20:52.268Z,14.55
2023-03-12T14:25:52.169Z,14.21
2023-03-12T14:30:53.152Z,13.89
2023-03-12T14:35:52.087Z,13.71
2023-03-12T14:40:51.965Z,13.61
2023-03-12T14:45:51.924Z,13.44
2023-03-12T14:50:51.840Z,13.18
2023-03-12T14:55:51.826Z,12.89
2023-03-12T15:00:52.632Z,12.62
2023-03-12T15:05:51.621Z,12.42
2023-03-12T15:10:52.585Z,12.37
2023-03-12T15:15:52.502Z,12.41
2023-03-12T15:20:51.418Z,12.45
2023-03-12T15:25:51.384Z,12.46
2023-03-12T15:30:51.338Z,12.38
2023-03-12T15:35:51.406Z,12.26
2023-03-12T15:40:52.122Z,12.12
2023-03-12T15:45:52.286Z,11.98
2023-03-12T15:50:52.057Z,11.84
2023-03-12T15:55:50.964Z,11.73
2023-03-12T16:00:50.952Z,11.67
2023-03-12T16:05:50.918Z,11.64
2023-03-12T16:10:50.797Z,11.63
2023-03-12T16:15:50.728Z,11.61
2023-03-12T16:20:50.639Z,11.58
2023-03-12T16:25:50.567Z,11.54
2023-03-12T16:30:51.438Z,11.50
2023-03-12T16:35:50.488Z,11.47
2023-03-12T16:40:51.704Z,11.43
2023-03-12T16:45:50.335Z,11.38
2023-03-12T16:50:50.241Z,11.32
2023-03-12T16:55:50.218Z,11.26
2023-03-12T17:00:50.221Z,11.22
2023-03-12T17:05:51.044Z,11.18
2023-03-12T17:10:51.070Z,11.13
2023-03-12T17:15:49.969Z,11.07
2023-03-12T17:20:49.832Z,11.02
2023-03-12T17:25:49.774Z,10.98
2023-03-12T17:30:49.739Z,10.94
2023-03-12T17:35:49.749Z,10.91
2023-03-12T17:40:49.577Z,10.85
2023-03-12T17:45:49.549Z,10.79
2023-03-12T17:50:49.434Z,10.75
2023-03-12T17:55:49.397Z,10.71
2023-03-12T18:00:49.275Z,10.68
2023-03-12T18:05:49.995Z,10.66
2023-03-12T18:10:49.188Z,10.62
2023-03-12T18:15:49.198Z,10.58
2023-03-12T18:20:49.085Z,10.54
2023-03-12T18:25:48.990Z,10.50
2023-03-12T18:30:49.053Z,10.45
2023-03-12T18:35:48.939Z,10.40
2023-03-12T18:40:48.808Z,10.34
2023-03-12T18:45:48.724Z,10.27
2023-03-12T18:50:48.650Z,10.21
2023-03-12T18:55:48.598Z,10.18
2023-03-12T19:00:48.519Z,10.16
2023-03-12T19:05:48.467Z,10.14
2023-03-12T19:10:48.410Z,10.09
2023-03-12T19:15:48.343Z,10.01
2023-03-12T19:20:48.932Z,9.91
2023-03-12T19:25:48.266Z,9.88
2023-03-12T19:30:48.116Z,9.89
2023-03-12T19:35:48.115Z,9.91
2023-03-12T19:40:48.171Z,9.90
2023-03-12T19:45:48.007Z,9.83
2023-03-12T19:50:47.880Z,9.72
2023-03-12T19:55:47.840Z,9.60
2023-03-12T20:00:47.709Z,9.49
2023-03-12T20:05:47.712Z,9.38
2023-03-12T20:10:47.595Z,9.26
2023-03-12T20:15:48.596Z,9.13
2023-03-12T20:20:47.491Z,9.00
2023-03-12T20:25:47.429Z,8.89
2023-03-12T20:30:47.323Z,8.82
2023-03-12T20:35:50.169Z,8.78
2023-03-12T20:40:47.234Z,8.77
2023-03-12T20:45:47.180Z,8.76
2023-03-12T20:50:47.160Z,8.75
2023-03-12T20:55:47.035Z,8.74
2023-03-12T21:00:46.965Z,8.72
2023-03-12T21:05:46.886Z,8.71
2023-03-12T21:10:46.797Z,8.71
2023-03-12T21:15:46.751Z,8.72
2023-03-12T21:20:46.721Z,8.73
2023-03-12T21:25:46.647Z,8.75
2023-03-12T21:30:46.633Z,8.76
2023-03-12T21:35:46.761Z,8.74
2023-03-12T21:40:46.421Z,8.68
2023-03-12T21:45:46.378Z,8.61
2023-03-12T21:50:47.116Z,8.55
2023-03-12T21:55:46.274Z,8.53
2023-03-12T22:00:46.162Z,8.52
2023-03-12T22:05:46.083Z,8.55
2023-03-12T22:10:47.822Z,8.59
2023-03-12T22:15:46.401Z,8.64
2023-03-12T22:20:45.913Z,8.70
2023-03-12T22:25:45.869Z,8.75
2023-03-12T22:30:45.757Z,8.78
2023-03-12T22:35:45.733Z,8.82
2023-03-12T22:40:45.596Z,8.84
2023-03-12T22:45:45.570Z,8.86
2023-03-12T22:50:45.529Z,8.88
2023-03-12T22:55:45.530Z,8.90
2023-03-12T23:00:45.382Z,8.92
2023-03-12T23:05:45.320Z,8.94
2023-03-12T23:10:45.227Z,8.95
2023-03-12T23:15:45.221Z,8.98
2023-03-12T23:20:45.104Z,9.04
2023-03-12T23:25:45.148Z,9.10
2023-03-12T23:30:44.917Z,9.14
2023-03-12T23:35:45.016Z,9.16
2023-03-12T23:40:44.820Z,9.16
2023-03-12T23:45:44.815Z,9.15
2023-03-12T23:50:44.703Z,9.15
2023-03-12T23:55:44.629Z,9.15
